createdAt,value
2019-01-12T00:00:53.107Z,47.14
2019-01-12T00:03:21.486Z,47.20
2019-01-12T00:05:49.861Z,47.24
2019-01-12T00:08:18.247Z,47.17
2019-01-12T00:10:46.626Z,47.30
2019-01-12T00:13:14.987Z,47.27
2019-01-12T00:15:43.379Z,47.37
2019-01-12T00:18:11.741Z,47.43
2019-01-12T00:20:40.115Z,47.31
2019-01-12T00:23:08.490Z,47.37
2019-01-12T00:25:36.864Z,47.40
2019-01-12T00:28:05.225Z,47.46
2019-01-12T00:30:33.602Z,47.47
2019-01-12T00:33:01.965Z,47.61
2019-01-12T00:35:30.341Z,47.58
2019-01-12T00:37:58.704Z,47.62
2019-01-12T00:40:27.083Z,47.64
2019-01-12T00:42:55.449Z,47.59
2019-01-12T00:45:23.826Z,47.66
2019-01-12T00:47:52.191Z,47.65
2019-01-12T00:50:21.730Z,47.79
2019-01-12T00:52:50.093Z,47.71
2019-01-12T00:55:18.487Z,47.79
2019-01-12T00:57:46.847Z,47.71
2019-01-12T01:00:18.053Z,47.79
2019-01-12T01:02:46.434Z,47.81
2019-01-12T01:05:14.869Z,47.93
2019-01-12T01:07:43.249Z,47.91
2019-01-12T01:10:17.651Z,47.97
2019-01-12T01:12:46.035Z,48.06
2019-01-12T01:15:14.742Z,47.94
2019-01-12T01:17:43.116Z,47.96
2019-01-12T01:20:14.122Z,48.01
2019-01-12T01:22:42.498Z,48.08
2019-01-12T01:25:11.296Z,48.17
2019-01-12T01:27:39.740Z,48.13
2019-01-12T01:30:11.413Z,48.04
2019-01-12T01:32:39.789Z,48.12
2019-01-12T01:35:08.382Z,48.13
2019-01-12T01:37:36.760Z,48.13
2019-01-12T01:40:08.266Z,48.19
2019-01-12T01:42:36.640Z,48.23
2019-01-12T01:45:07.444Z,48.29
2019-01-12T01:47:35.916Z,48.28
2019-01-12T01:50:06.422Z,48.23
2019-01-12T01:52:34.796Z,48.26
2019-01-12T01:55:03.161Z,48.28
2019-01-12T01:57:31.539Z,48.49
2019-01-12T01:59:59.903Z,48.92
2019-01-12T02:02:28.278Z,48.95
2019-01-12T02:04:56.640Z,48.62
2019-01-12T02:07:25.017Z,48.58
2019-01-12T02:09:53.387Z,48.56
2019-01-12T02:12:22.210Z,48.59
2019-01-12T02:14:50.573Z,48.45
2019-01-12T02:17:18.947Z,48.58
2019-01-12T02:19:47.309Z,48.48
2019-01-12T02:22:15.685Z,48.49
2019-01-12T02:24:44.051Z,48.53
2019-01-12T02:27:12.427Z,48.65
2019-01-12T02:29:40.788Z,48.59
2019-01-12T02:32:09.166Z,48.56
2019-01-12T02:34:37.533Z,48.63
2019-01-12T02:37:05.892Z,48.67
2019-01-12T02:39:34.265Z,48.63
2019-01-12T02:42:02.632Z,48.60
2019-01-12T02:44:31.010Z,48.71
2019-01-12T02:46:59.376Z,48.63
2019-01-12T02:49:27.745Z,48.58
2019-01-12T02:51:56.111Z,48.71
2019-01-12T02:54:24.489Z,48.78
2019-01-12T02:56:52.852Z,48.77
2019-01-12T02:59:21.224Z,48.72
2019-01-12T03:01:49.588Z,48.86
2019-01-12T03:04:17.967Z,48.81
2019-01-12T03:06:46.325Z,48.79
2019-01-12T03:09:14.703Z,48.89
2019-01-12T03:11:43.071Z,49.00
2019-01-12T03:14:11.444Z,49.00
2019-01-12T03:16:39.805Z,48.94
2019-01-12T03:19:08.184Z,48.95
2019-01-12T03:21:36.548Z,48.95
2019-01-12T03:24:05.058Z,49.05
2019-01-12T03:26:33.429Z,49.07
2019-01-12T03:29:01.801Z,49.03
2019-01-12T03:31:30.179Z,49.10
2019-01-12T03:33:58.554Z,49.10
2019-01-12T03:36:26.919Z,49.07
2019-01-12T03:38:55.307Z,49.09
2019-01-12T03:41:23.662Z,49.19
2019-01-12T03:43:52.936Z,49.11
2019-01-12T03:46:21.305Z,49.21
2019-01-12T03:48:49.681Z,49.38
2019-01-12T03:51:18.218Z,49.29
2019-01-12T03:53:46.634Z,49.33
2019-01-12T03:56:14.957Z,49.36
2019-01-12T03:58:43.333Z,49.34
2019-01-12T04:01:11.698Z,49.42
2019-01-12T04:03:40.073Z,49.32
2019-01-12T04:06:08.449Z,49.40
2019-01-12T04:08:36.827Z,49.49
2019-01-12T04:11:05.195Z,49.49
2019-01-12T04:13:33.556Z,49.43
2019-01-12T04:16:01.937Z,49.51
2019-01-12T04:18:30.299Z,49.46
2019-01-12T04:20:58.705Z,49.53
2019-01-12T04:23:27.070Z,49.66
2019-01-12T04:25:56.415Z,49.80
2019-01-12T04:28:24.775Z,49.60
2019-01-12T04:30:53.490Z,49.49
2019-01-12T04:33:21.862Z,49.62
2019-01-12T04:35:50.229Z,49.76
2019-01-12T04:38:18.594Z,49.84
2019-01-12T04:40:46.970Z,49.82
2019-01-12T04:43:15.331Z,49.85
2019-01-12T04:45:43.703Z,49.87
2019-01-12T04:48:12.065Z,49.88
2019-01-12T04:50:40.444Z,49.71
2019-01-12T04:53:08.803Z,49.64
2019-01-12T04:55:41.544Z,49.66
2019-01-12T04:58:07.285Z,49.75
2019-01-12T05:00:35.656Z,49.79
2019-01-12T05:03:04.091Z,49.91
2019-01-12T05:05:32.466Z,49.93
2019-01-12T05:08:00.835Z,49.91
2019-01-12T05:10:29.219Z,50.03
2019-01-12T05:12:57.580Z,49.99
2019-01-12T05:15:25.964Z,50.01
2019-01-12T05:17:54.331Z,49.93
2019-01-12T05:20:23.684Z,50.03
2019-01-12T05:22:52.117Z,50.03
2019-01-12T05:25:20.570Z,50.10
2019-01-12T05:27:48.937Z,50.08
2019-01-12T05:30:19.870Z,50.18
2019-01-12T05:32:48.196Z,50.14
2019-01-12T05:35:16.560Z,50.09
2019-01-12T05:37:44.941Z,50.14
2019-01-12T05:40:13.484Z,50.04
2019-01-12T05:42:41.856Z,50.10
2019-01-12T05:45:12.159Z,50.19
2019-01-12T05:47:40.536Z,50.32
2019-01-12T05:50:10.843Z,50.33
2019-01-12T05:52:39.300Z,50.38
2019-01-12T05:55:08.569Z,50.48
2019-01-12T05:57:36.942Z,50.65
2019-01-12T06:00:08.370Z,50.50
2019-01-12T06:02:36.813Z,50.61
2019-01-12T06:05:05.909Z,50.48
2019-01-12T06:07:34.284Z,50.46
2019-01-12T06:10:03.022Z,50.35
2019-01-12T06:12:31.392Z,50.30
2019-01-12T06:14:59.758Z,50.31
2019-01-12T06:17:28.139Z,50.37
2019-01-12T06:19:56.521Z,50.37
2019-01-12T06:22:24.899Z,50.42
2019-01-12T06:24:54.134Z,50.59
2019-01-12T06:27:22.510Z,50.71
2019-01-12T06:29:50.878Z,50.79
2019-01-12T06:32:19.255Z,50.66
2019-01-12T06:34:47.618Z,50.66
2019-01-12T06:37:15.993Z,50.67
2019-01-12T06:39:44.487Z,50.58
2019-01-12T06:42:12.863Z,50.60
2019-01-12T06:44:41.231Z,50.56
2019-01-12T06:47:09.606Z,50.54
2019-01-12T06:49:37.974Z,50.87
2019-01-12T06:52:06.350Z,50.77
2019-01-12T06:54:34.720Z,50.84
2019-01-12T06:57:03.096Z,50.92
2019-01-12T06:59:31.465Z,50.67
2019-01-12T07:01:59.994Z,50.89
2019-01-12T07:04:28.373Z,50.79
2019-01-12T07:06:56.738Z,50.84
2019-01-12T07:09:25.113Z,50.87
2019-01-12T07:11:54.536Z,50.76
2019-01-12T07:14:22.917Z,50.59
2019-01-12T07:16:51.284Z,50.41
2019-01-12T07:19:19.660Z,50.51
2019-01-12T07:21:48.023Z,50.61
2019-01-12T07:24:16.401Z,50.69
2019-01-12T07:26:44.774Z,50.79
2019-01-12T07:29:13.158Z,50.79
2019-01-12T07:31:41.521Z,50.97
2019-01-12T07:34:09.904Z,51.02
2019-01-12T07:36:38.270Z,51.21
2019-01-12T07:39:08.025Z,51.01
2019-01-12T07:41:36.382Z,51.14
2019-01-12T07:44:04.991Z,50.93
2019-01-12T07:46:33.368Z,50.99
2019-01-12T07:49:01.738Z,50.79
2019-01-12T07:51:30.101Z,50.68
2019-01-12T07:53:58.478Z,50.64
2019-01-12T07:56:26.845Z,50.72
2019-01-12T07:58:55.219Z,50.71
2019-01-12T08:01:23.586Z,50.78
2019-01-12T08:03:51.973Z,51.05
2019-01-12T08:06:20.340Z,51.07
2019-01-12T08:08:48.727Z,51.00
2019-01-12T08:11:17.097Z,51.08
2019-01-12T08:13:45.481Z,50.98
2019-01-12T08:16:13.845Z,50.85
2019-01-12T08:18:42.228Z,50.69
2019-01-12T08:21:10.600Z,50.50
2019-01-12T08:23:38.983Z,50.24
2019-01-12T08:26:07.349Z,50.01
2019-01-12T08:28:35.712Z,49.89
2019-01-12T08:31:04.158Z,49.65
2019-01-12T08:33:32.534Z,49.49
2019-01-12T08:36:00.898Z,49.40
2019-01-12T08:38:29.265Z,49.23
2019-01-12T08:40:57.641Z,49.16
2019-01-12T08:43:26.010Z,49.24
2019-01-12T08:45:55.287Z,49.09
2019-01-12T08:48:23.652Z,49.02
2019-01-12T08:50:52.123Z,49.01
2019-01-12T08:53:20.488Z,49.01
2019-01-12T08:55:48.865Z,48.99
2019-01-12T08:58:17.225Z,49.02
2019-01-12T09:00:45.604Z,49.01
2019-01-12T09:03:13.965Z,49.07
2019-01-12T09:05:42.342Z,49.10
2019-01-12T09:08:10.704Z,49.10
2019-01-12T09:10:39.092Z,49.05
2019-01-12T09:13:07.505Z,49.08
2019-01-12T09:15:35.883Z,49.10
2019-01-12T09:18:04.317Z,49.06
2019-01-12T09:20:32.705Z,49.20
2019-01-12T09:23:01.062Z,49.17
2019-01-12T09:25:29.521Z,49.18
2019-01-12T09:27:59.265Z,49.24
2019-01-12T09:30:27.742Z,49.24
2019-01-12T09:32:56.115Z,49.20
2019-01-12T09:35:24.497Z,49.17
2019-01-12T09:37:53.002Z,49.18
2019-01-12T09:40:21.556Z,49.22
2019-01-12T09:42:49.994Z,49.26
2019-01-12T09:45:19.010Z,49.42
2019-01-12T09:47:47.445Z,49.39
2019-01-12T09:50:17.561Z,49.40
2019-01-12T09:52:46.166Z,49.47
2019-01-12T09:55:15.291Z,49.51
2019-01-12T09:57:43.667Z,49.55
2019-01-12T10:00:23.023Z,49.50
2019-01-12T10:02:51.461Z,49.57
2019-01-12T10:05:19.897Z,49.57
2019-01-12T10:07:48.345Z,49.69
2019-01-12T10:10:19.828Z,49.59
2019-01-12T10:12:48.533Z,49.63
2019-01-12T10:15:16.963Z,49.76
2019-01-12T10:17:45.480Z,49.72
2019-01-12T10:20:16.330Z,49.72
2019-01-12T10:22:44.695Z,49.71
2019-01-12T10:25:13.506Z,49.70
2019-01-12T10:27:41.888Z,49.75
2019-01-12T10:30:13.338Z,49.77
2019-01-12T10:32:41.716Z,49.71
2019-01-12T10:35:10.256Z,49.67
2019-01-12T10:37:38.700Z,49.61
2019-01-12T10:40:12.725Z,49.75
2019-01-12T10:42:41.163Z,50.02
2019-01-12T10:45:12.569Z,50.24
2019-01-12T10:47:42.685Z,50.46
2019-01-12T10:50:17.412Z,50.56
2019-01-12T10:52:45.789Z,50.87
2019-01-12T10:55:14.157Z,50.84
2019-01-12T10:57:42.534Z,50.71
2019-01-12T11:00:17.516Z,50.54
2019-01-12T11:02:45.896Z,50.62
2019-01-12T11:05:14.531Z,50.61
2019-01-12T11:07:42.908Z,50.61
2019-01-12T11:10:13.114Z,50.60
2019-01-12T11:12:41.557Z,50.45
2019-01-12T11:15:15.973Z,50.61
2019-01-12T11:17:44.344Z,50.70
2019-01-12T11:20:12.844Z,50.45
2019-01-12T11:22:41.355Z,50.57
2019-01-12T11:25:12.163Z,50.66
2019-01-12T11:27:40.601Z,50.59
2019-01-12T11:30:14.922Z,50.63
2019-01-12T11:32:43.303Z,50.73
2019-01-12T11:35:11.805Z,50.77
2019-01-12T11:37:40.258Z,50.34
2019-01-12T11:40:11.688Z,50.66
2019-01-12T11:42:40.058Z,50.47
2019-01-12T11:45:08.762Z,50.54
2019-01-12T11:47:37.134Z,50.46
2019-01-12T11:50:08.553Z,50.64
2019-01-12T11:52:36.925Z,50.51
2019-01-12T11:55:07.730Z,50.59
2019-01-12T11:57:36.099Z,50.57
2019-01-12T12:00:16.644Z,50.65
2019-01-12T12:02:45.023Z,50.62
2019-01-12T12:05:13.526Z,50.90
2019-01-12T12:07:41.908Z,51.10
2019-01-12T12:10:12.418Z,50.84
2019-01-12T12:12:40.783Z,50.93
2019-01-12T12:15:12.509Z,51.14
2019-01-12T12:17:40.871Z,50.86
2019-01-12T12:20:12.665Z,50.84
2019-01-12T12:22:41.034Z,50.85
2019-01-12T12:25:09.547Z,50.93
2019-01-12T12:27:37.916Z,50.98
2019-01-12T12:30:12.361Z,51.31
2019-01-12T12:32:40.731Z,51.56
2019-01-12T12:35:09.106Z,52.06
2019-01-12T12:37:37.633Z,52.02
2019-01-12T12:40:08.958Z,52.02
2019-01-12T12:42:37.320Z,51.76
2019-01-12T12:45:08.745Z,51.93
2019-01-12T12:47:37.113Z,52.07
2019-01-12T12:50:11.603Z,51.92
2019-01-12T12:52:39.968Z,51.92
2019-01-12T12:55:09.583Z,52.13
2019-01-12T12:57:37.946Z,51.88
2019-01-12T13:00:12.245Z,51.94
2019-01-12T13:02:40.610Z,51.57
2019-01-12T13:05:10.078Z,51.86
2019-01-12T13:07:38.507Z,51.71
2019-01-12T13:10:10.158Z,51.78
2019-01-12T13:12:38.661Z,51.67
2019-01-12T13:15:08.178Z,51.27
2019-01-12T13:17:36.609Z,51.35
2019-01-12T13:20:10.839Z,51.31
2019-01-12T13:22:39.209Z,51.10
2019-01-12T13:25:08.126Z,51.18
2019-01-12T13:27:39.935Z,50.79
2019-01-12T13:30:09.672Z,50.57
2019-01-12T13:32:38.055Z,50.08
2019-01-12T13:35:07.884Z,49.79
2019-01-12T13:37:36.249Z,49.61
2019-01-12T13:40:07.887Z,49.29
2019-01-12T13:42:37.032Z,49.02
2019-01-12T13:45:08.636Z,48.96
2019-01-12T13:47:37.001Z,48.82
2019-01-12T13:50:08.444Z,48.64
2019-01-12T13:52:36.807Z,48.44
2019-01-12T13:55:08.529Z,48.28
2019-01-12T13:57:36.887Z,48.15
2019-01-12T14:00:08.321Z,47.93
2019-01-12T14:02:37.165Z,47.83
2019-01-12T14:05:07.185Z,47.65
2019-01-12T14:07:35.554Z,47.50
2019-01-12T14:10:06.879Z,47.44
2019-01-12T14:12:35.260Z,47.31
2019-01-12T14:15:05.499Z,47.03
2019-01-12T14:17:33.890Z,46.85
2019-01-12T14:20:02.591Z,46.74
2019-01-12T14:22:30.974Z,46.69
2019-01-12T14:24:59.337Z,46.60
2019-01-12T14:27:28.141Z,46.39
2019-01-12T14:29:56.510Z,46.31
2019-01-12T14:32:25.289Z,46.19
2019-01-12T14:34:53.717Z,46.11
2019-01-12T14:37:22.106Z,45.93
2019-01-12T14:39:50.481Z,45.95
2019-01-12T14:42:18.870Z,45.98
2019-01-12T14:44:47.312Z,45.86
2019-01-12T14:47:15.694Z,45.73
2019-01-12T14:49:44.056Z,45.54
2019-01-12T14:52:12.515Z,45.36
2019-01-12T14:54:40.998Z,45.25
2019-01-12T14:57:09.528Z,45.11
2019-01-12T14:59:37.923Z,44.91
2019-01-12T15:02:06.522Z,44.72
2019-01-12T15:04:35.096Z,44.58
2019-01-12T15:07:03.583Z,44.47
2019-01-12T15:09:31.940Z,44.34
2019-01-12T15:12:00.344Z,44.17
2019-01-12T15:14:28.947Z,43.99
2019-01-12T15:16:57.366Z,43.91
2019-01-12T15:19:25.731Z,43.77
2019-01-12T15:21:54.122Z,43.77
2019-01-12T15:24:22.646Z,43.59
2019-01-12T15:26:51.167Z,43.48
2019-01-12T15:29:19.537Z,43.48
2019-01-12T15:31:47.924Z,43.88
2019-01-12T15:34:16.366Z,42.95
2019-01-12T15:36:44.761Z,42.83
2019-01-12T15:39:13.339Z,43.03
2019-01-12T15:41:41.713Z,42.52
2019-01-12T15:44:10.144Z,43.33
2019-01-12T15:46:38.533Z,43.37
2019-01-12T15:49:06.975Z,43.66
2019-01-12T15:51:35.349Z,43.79
2019-01-12T15:54:03.740Z,43.92
2019-01-12T15:56:32.178Z,44.06
2019-01-12T15:59:00.555Z,43.96
2019-01-12T16:01:29.020Z,44.13
2019-01-12T16:03:57.401Z,44.07
2019-01-12T16:06:25.768Z,44.04
2019-01-12T16:08:54.152Z,44.14
2019-01-12T16:11:22.589Z,44.25
2019-01-12T16:13:51.266Z,44.38
2019-01-12T16:16:19.632Z,44.34
2019-01-12T16:18:48.076Z,44.25
2019-01-12T16:21:16.441Z,44.25
2019-01-12T16:23:44.821Z,44.29
2019-01-12T16:26:13.266Z,44.54
2019-01-12T16:28:41.886Z,44.50
2019-01-12T16:31:10.261Z,44.58
2019-01-12T16:33:38.640Z,44.62
2019-01-12T16:36:07.085Z,44.61
2019-01-12T16:38:35.535Z,44.68
2019-01-12T16:41:03.898Z,44.69
2019-01-12T16:43:32.477Z,44.73
2019-01-12T16:46:00.850Z,44.66
2019-01-12T16:48:29.383Z,45.14
2019-01-12T16:50:57.754Z,44.98
2019-01-12T16:53:26.137Z,45.01
2019-01-12T16:55:54.507Z,45.08
2019-01-12T16:58:22.884Z,44.15
2019-01-12T17:00:51.243Z,43.75
2019-01-12T17:03:19.761Z,43.19
2019-01-12T17:05:48.143Z,42.66
2019-01-12T17:08:16.509Z,42.04
2019-01-12T17:10:45.012Z,42.21
2019-01-12T17:13:13.376Z,42.10
2019-01-12T17:15:41.756Z,41.55
2019-01-12T17:18:10.119Z,41.16
2019-01-12T17:20:38.501Z,40.78
2019-01-12T17:23:06.954Z,40.48
2019-01-12T17:25:35.374Z,40.34
2019-01-12T17:28:03.743Z,39.96
2019-01-12T17:30:32.113Z,39.82
2019-01-12T17:33:00.544Z,39.52
2019-01-12T17:35:29.699Z,39.54
2019-01-12T17:37:58.129Z,39.40
2019-01-12T17:40:26.500Z,39.32
2019-01-12T17:42:54.875Z,39.18
2019-01-12T17:45:24.695Z,39.20
2019-01-12T17:47:53.223Z,39.21
2019-01-12T17:50:23.559Z,39.34
2019-01-12T17:52:51.999Z,39.61
2019-01-12T17:55:22.408Z,39.83
2019-01-12T17:57:50.777Z,40.10
2019-01-12T18:00:31.916Z,40.52
2019-01-12T18:03:00.409Z,40.64
2019-01-12T18:05:28.780Z,40.86
2019-01-12T18:07:57.149Z,41.16
2019-01-12T18:10:25.529Z,41.45
2019-01-12T18:12:53.898Z,41.43
2019-01-12T18:15:22.286Z,41.44
2019-01-12T18:17:50.660Z,41.51
2019-01-12T18:20:19.202Z,41.54
2019-01-12T18:22:47.737Z,41.60
2019-01-12T18:25:16.944Z,41.58
2019-01-12T18:27:45.485Z,41.58
2019-01-12T18:30:16.777Z,41.64
2019-01-12T18:32:45.312Z,41.62
2019-01-12T18:35:13.683Z,41.62
2019-01-12T18:37:42.062Z,41.79
2019-01-12T18:40:13.152Z,41.71
2019-01-12T18:42:41.596Z,41.71
2019-01-12T18:45:13.009Z,41.73
2019-01-12T18:47:42.036Z,41.81
2019-01-12T18:50:16.017Z,41.88
2019-01-12T18:52:44.427Z,41.97
2019-01-12T18:55:14.105Z,42.06
2019-01-12T18:57:42.489Z,41.99
2019-01-12T19:00:18.532Z,42.13
2019-01-12T19:02:47.146Z,42.26
2019-01-12T19:05:15.695Z,42.14
2019-01-12T19:07:44.069Z,42.20
2019-01-12T19:10:13.742Z,42.10
2019-01-12T19:12:42.186Z,42.13
2019-01-12T19:15:13.832Z,42.09
2019-01-12T19:17:42.276Z,42.04
2019-01-12T19:20:10.786Z,42.20
2019-01-12T19:22:39.159Z,42.69
2019-01-12T19:25:10.358Z,43.59
2019-01-12T19:27:38.737Z,44.03
2019-01-12T19:30:10.148Z,44.59
2019-01-12T19:32:38.525Z,45.04
2019-01-12T19:35:07.157Z,45.04
2019-01-12T19:37:35.612Z,43.69
2019-01-12T19:40:05.751Z,43.98
2019-01-12T19:42:34.128Z,44.23
2019-01-12T19:45:02.492Z,44.66
2019-01-12T19:47:30.983Z,44.65
2019-01-12T19:49:59.349Z,44.55
2019-01-12T19:52:27.723Z,44.53
2019-01-12T19:54:56.089Z,44.62
2019-01-12T19:57:24.466Z,44.79
2019-01-12T19:59:52.829Z,44.80
2019-01-12T20:02:21.278Z,45.00
2019-01-12T20:04:49.645Z,45.15
2019-01-12T20:07:18.029Z,44.97
2019-01-12T20:09:46.464Z,45.10
2019-01-12T20:12:14.847Z,45.14
2019-01-12T20:14:43.210Z,45.19
2019-01-12T20:17:11.573Z,45.22
2019-01-12T20:19:39.949Z,45.35
2019-01-12T20:22:08.385Z,45.36
2019-01-12T20:24:36.791Z,45.34
2019-01-12T20:27:05.222Z,45.53
2019-01-12T20:29:33.597Z,45.75
2019-01-12T20:32:21.284Z,45.60
2019-01-12T20:34:49.726Z,45.67
2019-01-12T20:37:36.005Z,45.82
2019-01-12T20:40:16.592Z,45.77
2019-01-12T20:43:05.907Z,46.02
2019-01-12T20:45:39.970Z,46.06
2019-01-12T20:48:23.320Z,45.96
2019-01-12T20:51:06.758Z,46.04
2019-01-12T20:54:04.973Z,46.10
2019-01-12T20:56:42.228Z,46.07
2019-01-12T20:59:16.534Z,46.22
2019-01-12T21:01:59.939Z,46.21
2019-01-12T21:04:37.298Z,46.21
2019-01-12T21:07:14.380Z,46.32
2019-01-12T21:10:03.722Z,46.41
2019-01-12T21:13:03.304Z,46.35
2019-01-12T21:15:34.963Z,46.31
2019-01-12T21:18:03.333Z,46.95
2019-01-12T21:20:31.711Z,46.77
2019-01-12T21:23:00.083Z,46.64
2019-01-12T21:25:28.458Z,46.81
2019-01-12T21:27:56.822Z,46.84
2019-01-12T21:30:25.275Z,46.67
2019-01-12T21:32:53.647Z,46.78
2019-01-12T21:35:22.020Z,46.75
2019-01-12T21:37:50.390Z,46.72
2019-01-12T21:40:18.767Z,46.78
2019-01-12T21:42:48.147Z,46.78
2019-01-12T21:45:16.664Z,46.87
2019-01-12T21:47:45.100Z,46.81
2019-01-12T21:50:15.314Z,46.94
2019-01-12T21:52:43.728Z,47.11
2019-01-12T21:55:12.174Z,47.03
2019-01-12T21:57:40.555Z,47.00
2019-01-12T22:00:14.835Z,47.05
2019-01-12T22:02:43.195Z,47.24
2019-01-12T22:05:12.694Z,47.27
2019-01-12T22:07:41.068Z,47.23
2019-01-12T22:10:19.055Z,47.29
2019-01-12T22:12:42.765Z,47.35
2019-01-12T22:15:14.137Z,47.48
2019-01-12T22:17:42.513Z,47.47
2019-01-12T22:20:17.241Z,47.36
2019-01-12T22:22:45.689Z,47.46
2019-01-12T22:25:14.172Z,47.50
2019-01-12T22:27:42.555Z,47.45
2019-01-12T22:30:13.971Z,47.64
2019-01-12T22:32:42.357Z,47.50
2019-01-12T22:35:11.080Z,47.60
2019-01-12T22:37:39.448Z,47.60
2019-01-12T22:40:10.868Z,47.71
2019-01-12T22:42:39.232Z,47.70
2019-01-12T22:45:07.735Z,47.90
2019-01-12T22:47:36.116Z,47.67
2019-01-12T22:50:09.794Z,47.82
2019-01-12T22:52:38.239Z,47.89
2019-01-12T22:55:09.937Z,47.97
2019-01-12T22:57:38.313Z,48.06
2019-01-12T23:00:27.679Z,48.32
2019-01-12T23:02:56.125Z,48.31
2019-01-12T23:05:24.490Z,48.30
2019-01-12T23:07:52.865Z,48.26
2019-01-12T23:10:21.227Z,48.23
2019-01-12T23:12:49.608Z,48.25
2019-01-12T23:15:18.985Z,48.23
2019-01-12T23:17:47.355Z,48.31
2019-01-12T23:20:15.791Z,48.38
2019-01-12T23:22:44.232Z,48.40
2019-01-12T23:25:12.596Z,48.77
2019-01-12T23:27:40.960Z,48.81
2019-01-12T23:30:14.532Z,48.80
2019-01-12T23:32:42.905Z,48.91
2019-01-12T23:35:12.124Z,48.91
2019-01-12T23:37:40.486Z,48.92
2019-01-12T23:40:13.274Z,48.70
2019-01-12T23:42:41.662Z,48.56
2019-01-12T23:45:14.614Z,48.46
2019-01-12T23:47:42.982Z,48.41
2019-01-12T23:50:12.999Z,48.42
2019-01-12T23:52:41.446Z,48.42
2019-01-12T23:55:10.896Z,48.40
2019-01-12T23:57:39.501Z,48.30
